createdAt,value
2023-06-29T00:02:30.136Z,20
2023-06-29T00:12:30.290Z,19.8
2023-06-29T00:32:30.672Z,19.6
2023-06-29T01:12:31.449Z,19.5
2023-06-29T01:22:32.438Z,19.5
2023-06-29T01:32:31.904Z,19.4
2023-06-29T01:42:32.038Z,19.5
2023-06-29T01:52:32.233Z,19.5
2023-06-29T04:32:35.397Z,20.1
2023-06-29T04:42:35.532Z,20.1
2023-06-29T04:52:35.778Z,20.1
2023-06-29T05:02:35.993Z,20.2
2023-06-29T05:12:36.141Z,20.3
2023-06-29T05:22:36.313Z,20.5
2023-06-29T10:32:42.381Z,23.5
2023-06-29T10:42:42.577Z,23.9
2023-06-29T10:52:42.758Z,23.9
2023-06-29T11:02:43.010Z,24.5
2023-06-29T11:12:43.154Z,25.1
2023-06-29T11:22:43.363Z,24.9
2023-06-29T11:32:43.617Z,24.6
2023-06-29T11:42:43.757Z,24.5
2023-06-29T11:52:43.937Z,24.3
2023-06-29T12:02:44.164Z,24.2
2023-06-29T12:12:44.320Z,24.1
2023-06-29T12:22:44.522Z,24.3
2023-06-29T12:32:44.726Z,24.5
2023-06-29T12:42:44.901Z,24.5
2023-06-29T13:02:45.556Z,24.6
2023-06-29T13:12:45.503Z,24.9
2023-06-29T13:22:45.686Z,25.1
2023-06-29T13:32:45.901Z,24.8
2023-06-29T13:42:46.109Z,25.3
2023-06-29T13:52:46.278Z,25.8
2023-06-29T14:02:46.584Z,26
2023-06-29T14:12:46.662Z,25.6
2023-06-29T14:22:46.862Z,25.8
2023-06-29T14:32:47.090Z,25.5
2023-06-29T14:52:47.449Z,25.4
2023-06-29T15:02:47.743Z,25.2
2023-06-29T15:12:47.839Z,25.2
2023-06-29T15:22:48.035Z,24.9
2023-06-29T15:32:48.250Z,24.7
2023-06-29T15:42:48.447Z,24.6
2023-06-29T15:52:48.664Z,24.3
2023-06-29T16:02:49.010Z,24.2
2023-06-29T16:12:49.022Z,24
2023-06-29T16:22:49.269Z,23.8
2023-06-29T16:32:49.438Z,23.6
2023-06-29T16:42:49.595Z,23.7
2023-06-29T16:52:49.800Z,23.7
2023-06-29T17:02:50.056Z,23.6
2023-06-29T17:52:50.961Z,22.2
2023-06-29T18:02:51.237Z,22
2023-06-29T18:12:51.347Z,22.2
2023-06-29T18:52:52.185Z,21.6
2023-06-29T19:02:52.366Z,21.5
2023-06-29T19:12:52.516Z,21.3
2023-06-29T19:22:52.730Z,21.3
2023-06-29T19:43:58.835Z,21.2
2023-06-29T19:52:53.298Z,21
2023-06-29T20:02:53.549Z,19.9
2023-06-29T20:12:53.754Z,19.2
2023-06-29T20:32:54.258Z,18.9
2023-06-29T20:52:54.470Z,18.7
2023-06-29T21:12:54.845Z,18.5
2023-06-29T21:32:55.254Z,18
2023-06-29T21:42:55.447Z,17.8
2023-06-29T21:52:55.646Z,17.6
2023-06-29T22:02:56.769Z,17.5
2023-06-29T22:12:56.043Z,17.3
2023-06-29T22:22:56.239Z,17.3
2023-06-29T22:32:56.448Z,17.2
2023-06-29T22:42:56.615Z,17.1
2023-06-29T22:52:56.883Z,16.9
2023-06-29T23:02:57.063Z,16.4
2023-06-29T23:12:57.200Z,16.2
2023-06-29T23:22:57.396Z,16.2
2023-06-29T23:32:57.623Z,16.1
2023-06-29T23:52:57.983Z,16
